sensor_id;sensor_type;location;lat;lon;timestamp;P1;durP1;ratioP1;P2;durP2;ratioP2
76595;SDS011;65485;45.990;18.670;2024-01-11T05:06:00;7.43;;;3.70;;
76595;SDS011;65485;45.990;18.670;2024-01-11T05:09:02;4.15;;;3.28;;
76595;SDS011;65485;45.990;18.670;2024-01-11T05:12:07;7.25;;;6.55;;
76595;SDS011;65485;45.990;18.670;2024-01-11T05:15:10;9.45;;;4.50;;
76595;SDS011;65485;45.990;18.670;2024-01-11T05:18:13;9.57;;;5.50;;
76595;SDS011;65485;45.990;18.670;2024-01-11T05:21:15;9.63;;;5.33;;
76595;SDS011;65485;45.990;18.670;2024-01-11T05:24:18;6.50;;;4.30;;
76595;SDS011;65485;45.990;18.670;2024-01-11T05:27:20;5.70;;;4.82;;
76595;SDS011;65485;45.990;18.670;2024-01-11T05:30:23;7.83;;;4.93;;
76595;SDS011;65485;45.990;18.670;2024-01-11T05:33:29;7.18;;;4.78;;
76595;SDS011;65485;45.990;18.670;2024-01-11T05:36:32;7.93;;;5.88;;
76595;SDS011;65485;45.990;18.670;2024-01-11T05:39:35;10.25;;;5.63;;
76595;SDS011;65485;45.990;18.670;2024-01-11T05:42:38;7.82;;;4.15;;
76595;SDS011;65485;45.990;18.670;2024-01-11T05:45:40;8.93;;;6.00;;
76595;SDS011;65485;45.990;18.670;2024-01-11T05:48:49;9.75;;;6.50;;
76595;SDS011;65485;45.990;18.670;2024-01-11T05:51:52;11.27;;;6.00;;
76595;SDS011;65485;45.990;18.670;2024-01-11T05:54:54;12.68;;;6.72;;
76595;SDS011;65485;45.990;18.670;2024-01-11T05:57:57;16.88;;;5.90;;
76595;SDS011;65485;45.990;18.670;2024-01-11T06:00:59;13.00;;;6.97;;
76595;SDS011;65485;45.990;18.670;2024-01-11T06:04:02;14.20;;;6.55;;
76595;SDS011;65485;45.990;18.670;2024-01-11T06:07:05;9.32;;;7.40;;
76595;SDS011;65485;45.990;18.670;2024-01-11T06:10:08;15.00;;;7.72;;
76595;SDS011;65485;45.990;18.670;2024-01-11T06:13:11;15.05;;;7.18;;
76595;SDS011;65485;45.990;18.670;2024-01-11T06:16:13;9.90;;;5.90;;
76595;SDS011;65485;45.990;18.670;2024-01-11T06:19:16;9.95;;;6.53;;
76595;SDS011;65485;45.990;18.670;2024-01-11T06:22:19;14.03;;;7.00;;
76595;SDS011;65485;45.990;18.670;2024-01-11T06:25:21;9.70;;;7.05;;
76595;SDS011;65485;45.990;18.670;2024-01-11T06:28:24;11.90;;;8.23;;
76595;SDS011;65485;45.990;18.670;2024-01-11T06:31:26;8.70;;;6.03;;
76595;SDS011;65485;45.990;18.670;2024-01-11T06:34:29;18.25;;;8.02;;
76595;SDS011;65485;45.990;18.670;2024-01-11T06:37:32;10.18;;;7.10;;
76595;SDS011;65485;45.990;18.670;2024-01-11T06:40:35;10.02;;;7.20;;
76595;SDS011;65485;45.990;18.670;2024-01-11T06:43:37;12.60;;;8.57;;
76595;SDS011;65485;45.990;18.670;2024-01-11T06:46:40;12.65;;;7.75;;
76595;SDS011;65485;45.990;18.670;2024-01-11T06:49:43;16.25;;;9.27;;
76595;SDS011;65485;45.990;18.670;2024-01-11T06:52:46;19.47;;;8.00;;
76595;SDS011;65485;45.990;18.670;2024-01-11T06:55:49;19.45;;;9.65;;
76595;SDS011;65485;45.990;18.670;2024-01-11T06:58:54;16.67;;;10.02;;
76595;SDS011;65485;45.990;18.670;2024-01-11T07:01:57;19.10;;;11.50;;
76595;SDS011;65485;45.990;18.670;2024-01-11T07:05:00;22.02;;;11.43;;
76595;SDS011;65485;45.990;18.670;2024-01-11T07:08:03;25.70;;;13.60;;
76595;SDS011;65485;45.990;18.670;2024-01-11T07:11:11;28.08;;;14.20;;
76595;SDS011;65485;45.990;18.670;2024-01-11T07:14:14;39.67;;;17.40;;
76595;SDS011;65485;45.990;18.670;2024-01-11T07:22:06;33.13;;;15.98;;
76595;SDS011;65485;45.990;18.670;2024-01-11T07:25:08;38.83;;;17.52;;
76595;SDS011;65485;45.990;18.670;2024-01-11T07:28:14;46.22;;;19.20;;
76595;SDS011;65485;45.990;18.670;2024-01-11T07:31:21;47.13;;;19.88;;
76595;SDS011;65485;45.990;18.670;2024-01-11T07:34:24;48.13;;;21.00;;
76595;SDS011;65485;45.990;18.670;2024-01-11T07:37:37;42.97;;;19.10;;
76595;SDS011;65485;45.990;18.670;2024-01-11T07:40:42;36.00;;;18.27;;
76595;SDS011;65485;45.990;18.670;2024-01-11T07:43:45;39.90;;;18.17;;
76595;SDS011;65485;45.990;18.670;2024-01-11T07:50:51;31.73;;;18.00;;
76595;SDS011;65485;45.990;18.670;2024-01-11T07:54:27;46.65;;;24.70;;
76595;SDS011;65485;45.990;18.670;2024-01-11T07:57:30;46.33;;;24.50;;
76595;SDS011;65485;45.990;18.670;2024-01-11T08:00:40;27.50;;;16.38;;
76595;SDS011;65485;45.990;18.670;2024-01-11T08:03:43;27.85;;;13.98;;
76595;SDS011;65485;45.990;18.670;2024-01-11T08:06:49;18.33;;;11.50;;
76595;SDS011;65485;45.990;18.670;2024-01-11T08:09:55;23.05;;;11.93;;
76595;SDS011;65485;45.990;18.670;2024-01-11T08:12:58;25.83;;;11.57;;
76595;SDS011;65485;45.990;18.670;2024-01-11T08:16:01;27.35;;;13.00;;
76595;SDS011;65485;45.990;18.670;2024-01-11T08:19:09;23.10;;;14.70;;
76595;SDS011;65485;45.990;18.670;2024-01-11T08:22:12;26.67;;;15.17;;
76595;SDS011;65485;45.990;18.670;2024-01-11T08:25:15;23.88;;;15.35;;
76595;SDS011;65485;45.990;18.670;2024-01-11T08:28:17;24.83;;;15.98;;
76595;SDS011;65485;45.990;18.670;2024-01-11T08:31:20;26.15;;;15.50;;
76595;SDS011;65485;45.990;18.670;2024-01-11T08:34:23;24.10;;;15.23;;
76595;SDS011;65485;45.990;18.670;2024-01-11T08:37:28;23.93;;;15.40;;
76595;SDS011;65485;45.990;18.670;2024-01-11T08:40:31;32.25;;;17.05;;
76595;SDS011;65485;45.990;18.670;2024-01-11T08:43:37;32.05;;;17.92;;
76595;SDS011;65485;45.990;18.670;2024-01-11T08:46:41;27.95;;;16.33;;
76595;SDS011;65485;45.990;18.670;2024-01-11T08:49:46;40.13;;;21.65;;
76595;SDS011;65485;45.990;18.670;2024-01-11T08:52:54;40.00;;;21.63;;
76595;SDS011;65485;45.990;18.670;2024-01-11T08:56:08;33.28;;;18.17;;
76595;SDS011;65485;45.990;18.670;2024-01-11T08:59:10;41.63;;;22.25;;
76595;SDS011;65485;45.990;18.670;2024-01-11T09:02:13;31.25;;;19.17;;
76595;SDS011;65485;45.990;18.670;2024-01-11T09:05:22;26.83;;;17.50;;
76595;SDS011;65485;45.990;18.670;2024-01-11T09:08:24;30.57;;;19.03;;
76595;SDS011;65485;45.990;18.670;2024-01-11T09:11:27;35.15;;;20.00;;
76595;SDS011;65485;45.990;18.670;2024-01-11T09:14:30;37.72;;;20.52;;
76595;SDS011;65485;45.990;18.670;2024-01-11T09:17:41;34.78;;;20.33;;
76595;SDS011;65485;45.990;18.670;2024-01-11T09:20:44;30.00;;;19.15;;
76595;SDS011;65485;45.990;18.670;2024-01-11T09:23:47;31.40;;;18.10;;
76595;SDS011;65485;45.990;18.670;2024-01-11T09:26:50;28.33;;;17.80;;
76595;SDS011;65485;45.990;18.670;2024-01-11T09:29:57;32.65;;;18.80;;
76595;SDS011;65485;45.990;18.670;2024-01-11T09:33:00;28.77;;;17.75;;
76595;SDS011;65485;45.990;18.670;2024-01-11T09:36:03;32.95;;;20.25;;
76595;SDS011;65485;45.990;18.670;2024-01-11T09:39:06;35.50;;;20.03;;
76595;SDS011;65485;45.990;18.670;2024-01-11T09:42:10;29.88;;;18.85;;
76595;SDS011;65485;45.990;18.670;2024-01-11T09:45:17;33.70;;;20.17;;
76595;SDS011;65485;45.990;18.670;2024-01-11T09:48:21;37.33;;;21.17;;
76595;SDS011;65485;45.990;18.670;2024-01-11T09:51:30;30.83;;;19.35;;
76595;SDS011;65485;45.990;18.670;2024-01-11T09:54:34;33.03;;;18.90;;
76595;SDS011;65485;45.990;18.670;2024-01-11T09:57:37;34.63;;;20.05;;
76595;SDS011;65485;45.990;18.670;2024-01-11T10:00:41;30.67;;;18.02;;
76595;SDS011;65485;45.990;18.670;2024-01-11T10:03:44;31.15;;;18.70;;
76595;SDS011;65485;45.990;18.670;2024-01-11T10:06:48;32.88;;;21.02;;
76595;SDS011;65485;45.990;18.670;2024-01-11T10:09:53;28.30;;;17.60;;
76595;SDS011;65485;45.990;18.670;2024-01-11T10:12:56;27.00;;;17.33;;
76595;SDS011;65485;45.990;18.670;2024-01-11T10:16:08;25.58;;;17.75;;
76595;SDS011;65485;45.990;18.670;2024-01-11T10:19:12;26.85;;;17.75;;
76595;SDS011;65485;45.990;18.670;2024-01-11T10:22:18;27.05;;;18.42;;
76595;SDS011;65485;45.990;18.670;2024-01-11T10:25:36;26.20;;;17.40;;
76595;SDS011;65485;45.990;18.670;2024-01-11T10:28:39;26.70;;;18.55;;
76595;SDS011;65485;45.990;18.670;2024-01-11T10:31:42;26.42;;;17.95;;
76595;SDS011;65485;45.990;18.670;2024-01-11T10:34:45;27.48;;;18.05;;
76595;SDS011;65485;45.990;18.670;2024-01-11T10:37:47;30.23;;;18.23;;
76595;SDS011;65485;45.990;18.670;2024-01-11T10:40:53;26.27;;;17.10;;
76595;SDS011;65485;45.990;18.670;2024-01-11T10:44:00;30.55;;;18.48;;
76595;SDS011;65485;45.990;18.670;2024-01-11T10:47:04;26.58;;;18.42;;
76595;SDS011;65485;45.990;18.670;2024-01-11T10:50:10;28.48;;;16.73;;
76595;SDS011;65485;45.990;18.670;2024-01-11T10:56:32;27.77;;;16.20;;
76595;SDS011;65485;45.990;18.670;2024-01-11T10:59:35;25.90;;;16.02;;
76595;SDS011;65485;45.990;18.670;2024-01-11T11:02:41;24.58;;;17.40;;
76595;SDS011;65485;45.990;18.670;2024-01-11T11:05:45;25.55;;;16.05;;
76595;SDS011;65485;45.990;18.670;2024-01-11T11:08:50;27.02;;;14.85;;
76595;SDS011;65485;45.990;18.670;2024-01-11T11:11:56;26.93;;;16.07;;
76595;SDS011;65485;45.990;18.670;2024-01-11T11:15:01;24.15;;;15.23;;
76595;SDS011;65485;45.990;18.670;2024-01-11T11:18:05;28.70;;;15.10;;
76595;SDS011;65485;45.990;18.670;2024-01-11T11:21:08;22.70;;;13.77;;
76595;SDS011;65485;45.990;18.670;2024-01-11T11:24:14;24.48;;;14.05;;
76595;SDS011;65485;45.990;18.670;2024-01-11T11:27:19;21.30;;;12.37;;
76595;SDS011;65485;45.990;18.670;2024-01-11T11:30:21;21.65;;;13.90;;
76595;SDS011;65485;45.990;18.670;2024-01-11T11:33:28;22.77;;;12.15;;
76595;SDS011;65485;45.990;18.670;2024-01-11T11:36:36;16.63;;;10.70;;
76595;SDS011;65485;45.990;18.670;2024-01-11T11:39:41;17.73;;;10.45;;
76595;SDS011;65485;45.990;18.670;2024-01-11T11:42:44;19.27;;;12.40;;
76595;SDS011;65485;45.990;18.670;2024-01-11T11:45:52;17.20;;;8.73;;
76595;SDS011;65485;45.990;18.670;2024-01-11T11:48:59;20.73;;;11.43;;
76595;SDS011;65485;45.990;18.670;2024-01-11T11:52:02;13.60;;;8.48;;
76595;SDS011;65485;45.990;18.670;2024-01-11T11:55:05;14.82;;;9.32;;
76595;SDS011;65485;45.990;18.670;2024-01-11T11:58:12;16.53;;;10.53;;
76595;SDS011;65485;45.990;18.670;2024-01-11T12:01:15;14.77;;;8.48;;
76595;SDS011;65485;45.990;18.670;2024-01-11T12:04:19;15.13;;;8.20;;
76595;SDS011;65485;45.990;18.670;2024-01-11T12:07:23;17.27;;;8.95;;
76595;SDS011;65485;45.990;18.670;2024-01-11T12:10:26;13.75;;;8.93;;
76595;SDS011;65485;45.990;18.670;2024-01-11T12:13:32;14.30;;;9.10;;
76595;SDS011;65485;45.990;18.670;2024-01-11T12:17:00;13.55;;;7.43;;
76595;SDS011;65485;45.990;18.670;2024-01-11T12:20:02;14.30;;;8.40;;
76595;SDS011;65485;45.990;18.670;2024-01-11T12:23:06;13.68;;;8.85;;
76595;SDS011;65485;45.990;18.670;2024-01-11T12:26:09;12.63;;;7.22;;
76595;SDS011;65485;45.990;18.670;2024-01-11T12:29:17;16.60;;;9.47;;
76595;SDS011;65485;45.990;18.670;2024-01-11T12:32:30;18.17;;;8.10;;
76595;SDS011;65485;45.990;18.670;2024-01-11T12:35:33;18.60;;;9.80;;
76595;SDS011;65485;45.990;18.670;2024-01-11T12:38:36;18.17;;;9.38;;
76595;SDS011;65485;45.990;18.670;2024-01-11T12:41:53;17.52;;;9.50;;
76595;SDS011;65485;45.990;18.670;2024-01-11T12:44:58;12.67;;;7.43;;
76595;SDS011;65485;45.990;18.670;2024-01-11T12:48:01;14.02;;;7.88;;
76595;SDS011;65485;45.990;18.670;2024-01-11T12:51:06;11.60;;;7.20;;
76595;SDS011;65485;45.990;18.670;2024-01-11T12:54:23;16.23;;;8.60;;
76595;SDS011;65485;45.990;18.670;2024-01-11T12:57:26;14.98;;;9.15;;
76595;SDS011;65485;45.990;18.670;2024-01-11T13:00:29;15.40;;;9.13;;
76595;SDS011;65485;45.990;18.670;2024-01-11T13:03:32;15.10;;;8.63;;
76595;SDS011;65485;45.990;18.670;2024-01-11T13:06:35;12.93;;;7.90;;
76595;SDS011;65485;45.990;18.670;2024-01-11T13:09:38;16.85;;;8.98;;
76595;SDS011;65485;45.990;18.670;2024-01-11T13:12:41;11.75;;;7.57;;
76595;SDS011;65485;45.990;18.670;2024-01-11T13:15:46;16.47;;;8.27;;
76595;SDS011;65485;45.990;18.670;2024-01-11T13:18:49;15.25;;;7.88;;
76595;SDS011;65485;45.990;18.670;2024-01-11T13:21:52;13.70;;;6.85;;
76595;SDS011;65485;45.990;18.670;2024-01-11T13:24:55;16.00;;;9.35;;
76595;SDS011;65485;45.990;18.670;2024-01-11T13:27:58;11.30;;;6.25;;
76595;SDS011;65485;45.990;18.670;2024-01-11T13:31:01;12.53;;;6.60;;
76595;SDS011;65485;45.990;18.670;2024-01-11T13:34:05;12.57;;;7.80;;
76595;SDS011;65485;45.990;18.670;2024-01-11T13:37:11;9.48;;;6.18;;
76595;SDS011;65485;45.990;18.670;2024-01-11T13:40:14;10.32;;;6.82;;
76595;SDS011;65485;45.990;18.670;2024-01-11T13:43:17;10.18;;;6.55;;
76595;SDS011;65485;45.990;18.670;2024-01-11T13:46:21;14.47;;;6.93;;
76595;SDS011;65485;45.990;18.670;2024-01-11T13:49:24;14.63;;;8.45;;
76595;SDS011;65485;45.990;18.670;2024-01-11T13:56:34;14.98;;;7.78;;
76595;SDS011;65485;45.990;18.670;2024-01-11T13:59:37;17.63;;;9.20;;
76595;SDS011;65485;45.990;18.670;2024-01-11T14:02:39;16.10;;;7.53;;
76595;SDS011;65485;45.990;18.670;2024-01-11T14:05:42;18.75;;;9.82;;
76595;SDS011;65485;45.990;18.670;2024-01-11T14:08:45;13.85;;;7.55;;
76595;SDS011;65485;45.990;18.670;2024-01-11T14:11:48;10.68;;;7.28;;
76595;SDS011;65485;45.990;18.670;2024-01-11T14:14:51;16.08;;;9.57;;
76595;SDS011;65485;45.990;18.670;2024-01-11T14:17:54;16.97;;;8.73;;
76595;SDS011;65485;45.990;18.670;2024-01-11T14:20:58;18.30;;;10.18;;
76595;SDS011;65485;45.990;18.670;2024-01-11T14:24:00;17.20;;;10.65;;
76595;SDS011;65485;45.990;18.670;2024-01-11T14:27:03;16.88;;;9.45;;
76595;SDS011;65485;45.990;18.670;2024-01-11T14:30:07;19.60;;;10.77;;
76595;SDS011;65485;45.990;18.670;2024-01-11T14:33:12;13.27;;;9.52;;
76595;SDS011;65485;45.990;18.670;2024-01-11T14:36:15;14.27;;;8.32;;
76595;SDS011;65485;45.990;18.670;2024-01-11T14:39:18;21.30;;;10.40;;
76595;SDS011;65485;45.990;18.670;2024-01-11T14:42:21;24.50;;;12.68;;
76595;SDS011;65485;45.990;18.670;2024-01-11T14:45:23;17.30;;;9.63;;
76595;SDS011;65485;45.990;18.670;2024-01-11T14:48:26;19.70;;;10.07;;
76595;SDS011;65485;45.990;18.670;2024-01-11T14:51:30;20.98;;;9.57;;
76595;SDS011;65485;45.990;18.670;2024-01-11T14:54:56;17.10;;;8.25;;
76595;SDS011;65485;45.990;18.670;2024-01-11T14:57:58;23.10;;;8.55;;
76595;SDS011;65485;45.990;18.670;2024-01-11T15:01:01;11.90;;;8.33;;
76595;SDS011;65485;45.990;18.670;2024-01-11T15:04:04;14.30;;;7.45;;
76595;SDS011;65485;45.990;18.670;2024-01-11T15:07:07;15.15;;;8.85;;
76595;SDS011;65485;45.990;18.670;2024-01-11T15:10:10;16.45;;;9.10;;
76595;SDS011;65485;45.990;18.670;2024-01-11T15:13:12;17.20;;;8.40;;
76595;SDS011;65485;45.990;18.670;2024-01-11T15:16:15;13.90;;;8.45;;
76595;SDS011;65485;45.990;18.670;2024-01-11T15:19:18;18.27;;;10.27;;
76595;SDS011;65485;45.990;18.670;2024-01-11T15:22:20;23.10;;;10.48;;
76595;SDS011;65485;45.990;18.670;2024-01-11T15:25:23;19.58;;;10.00;;
76595;SDS011;65485;45.990;18.670;2024-01-11T15:28:26;21.33;;;11.53;;
76595;SDS011;65485;45.990;18.670;2024-01-11T15:31:28;18.58;;;9.50;;
76595;SDS011;65485;45.990;18.670;2024-01-11T15:34:31;21.83;;;11.65;;
76595;SDS011;65485;45.990;18.670;2024-01-11T15:37:34;22.00;;;10.95;;
76595;SDS011;65485;45.990;18.670;2024-01-11T15:40:37;20.17;;;11.33;;
76595;SDS011;65485;45.990;18.670;2024-01-11T15:43:39;23.90;;;11.13;;
76595;SDS011;65485;45.990;18.670;2024-01-11T15:46:42;21.90;;;12.80;;
76595;SDS011;65485;45.990;18.670;2024-01-11T15:49:45;28.80;;;13.32;;
76595;SDS011;65485;45.990;18.670;2024-01-11T15:52:47;26.45;;;12.20;;
76595;SDS011;65485;45.990;18.670;2024-01-11T15:55:50;17.17;;;9.82;;
76595;SDS011;65485;45.990;18.670;2024-01-11T15:58:53;23.48;;;12.73;;
76595;SDS011;65485;45.990;18.670;2024-01-11T16:01:55;22.20;;;10.03;;
76595;SDS011;65485;45.990;18.670;2024-01-11T16:05:08;19.40;;;9.98;;
76595;SDS011;65485;45.990;18.670;2024-01-11T16:08:14;20.33;;;10.30;;
76595;SDS011;65485;45.990;18.670;2024-01-11T16:11:16;17.85;;;11.50;;
76595;SDS011;65485;45.990;18.670;2024-01-11T16:14:21;25.07;;;12.20;;
76595;SDS011;65485;45.990;18.670;2024-01-11T16:17:24;21.80;;;9.57;;
76595;SDS011;65485;45.990;18.670;2024-01-11T16:20:27;26.15;;;14.10;;
76595;SDS011;65485;45.990;18.670;2024-01-11T16:23:31;26.83;;;11.52;;
76595;SDS011;65485;45.990;18.670;2024-01-11T16:26:34;23.30;;;11.38;;
76595;SDS011;65485;45.990;18.670;2024-01-11T16:29:40;22.08;;;12.35;;
76595;SDS011;65485;45.990;18.670;2024-01-11T16:32:43;25.23;;;12.40;;
76595;SDS011;65485;45.990;18.670;2024-01-11T16:35:46;25.00;;;12.32;;
76595;SDS011;65485;45.990;18.670;2024-01-11T16:38:59;19.58;;;13.68;;
76595;SDS011;65485;45.990;18.670;2024-01-11T16:42:05;24.23;;;14.23;;
76595;SDS011;65485;45.990;18.670;2024-01-11T16:45:08;28.13;;;14.65;;
76595;SDS011;65485;45.990;18.670;2024-01-11T16:48:12;24.08;;;13.10;;
76595;SDS011;65485;45.990;18.670;2024-01-11T16:51:19;21.50;;;12.77;;
76595;SDS011;65485;45.990;18.670;2024-01-11T16:54:22;20.50;;;11.85;;
76595;SDS011;65485;45.990;18.670;2024-01-11T16:57:24;28.00;;;13.50;;
76595;SDS011;65485;45.990;18.670;2024-01-11T17:00:27;35.95;;;15.18;;
76595;SDS011;65485;45.990;18.670;2024-01-11T17:03:30;40.47;;;18.30;;
76595;SDS011;65485;45.990;18.670;2024-01-11T17:06:33;23.92;;;13.25;;
76595;SDS011;65485;45.990;18.670;2024-01-11T17:09:37;19.40;;;14.13;;
76595;SDS011;65485;45.990;18.670;2024-01-11T17:12:39;28.25;;;15.90;;
76595;SDS011;65485;45.990;18.670;2024-01-11T17:15:42;23.43;;;14.07;;
76595;SDS011;65485;45.990;18.670;2024-01-11T17:18:45;18.95;;;11.13;;
76595;SDS011;65485;45.990;18.670;2024-01-11T17:21:51;24.05;;;12.60;;
76595;SDS011;65485;45.990;18.670;2024-01-11T17:24:54;22.15;;;12.75;;
76595;SDS011;65485;45.990;18.670;2024-01-11T17:27:56;22.60;;;13.30;;
76595;SDS011;65485;45.990;18.670;2024-01-11T17:30:59;25.83;;;11.50;;
76595;SDS011;65485;45.990;18.670;2024-01-11T17:34:02;29.13;;;14.73;;
76595;SDS011;65485;45.990;18.670;2024-01-11T17:37:05;33.08;;;17.40;;
76595;SDS011;65485;45.990;18.670;2024-01-11T17:40:08;35.30;;;16.40;;
76595;SDS011;65485;45.990;18.670;2024-01-11T17:43:11;21.95;;;14.40;;
76595;SDS011;65485;45.990;18.670;2024-01-11T17:46:20;30.70;;;14.98;;
76595;SDS011;65485;45.990;18.670;2024-01-11T17:49:24;36.25;;;15.77;;
76595;SDS011;65485;45.990;18.670;2024-01-11T17:52:26;35.90;;;18.03;;
76595;SDS011;65485;45.990;18.670;2024-01-11T17:55:31;28.13;;;12.40;;
76595;SDS011;65485;45.990;18.670;2024-01-11T17:58:33;25.02;;;15.15;;
76595;SDS011;65485;45.990;18.670;2024-01-11T18:01:36;27.02;;;11.23;;
76595;SDS011;65485;45.990;18.670;2024-01-11T18:04:41;22.63;;;13.40;;
76595;SDS011;65485;45.990;18.670;2024-01-11T18:07:44;27.83;;;13.70;;
76595;SDS011;65485;45.990;18.670;2024-01-11T18:10:46;28.90;;;13.57;;
76595;SDS011;65485;45.990;18.670;2024-01-11T18:13:49;26.95;;;13.48;;
76595;SDS011;65485;45.990;18.670;2024-01-11T18:16:52;26.50;;;13.68;;
76595;SDS011;65485;45.990;18.670;2024-01-11T18:19:55;30.67;;;15.00;;
76595;SDS011;65485;45.990;18.670;2024-01-11T18:22:57;23.95;;;14.00;;
76595;SDS011;65485;45.990;18.670;2024-01-11T18:26:00;35.80;;;16.63;;
76595;SDS011;65485;45.990;18.670;2024-01-11T18:29:05;24.38;;;14.65;;
76595;SDS011;65485;45.990;18.670;2024-01-11T18:32:08;21.05;;;11.73;;
76595;SDS011;65485;45.990;18.670;2024-01-11T18:35:11;26.90;;;14.25;;
76595;SDS011;65485;45.990;18.670;2024-01-11T18:38:13;30.43;;;14.27;;
76595;SDS011;65485;45.990;18.670;2024-01-11T18:41:16;29.23;;;14.77;;
76595;SDS011;65485;45.990;18.670;2024-01-11T18:44:20;27.42;;;12.90;;
76595;SDS011;65485;45.990;18.670;2024-01-11T18:47:23;15.77;;;9.48;;
76595;SDS011;65485;45.990;18.670;2024-01-11T18:50:26;32.70;;;14.27;;
76595;SDS011;65485;45.990;18.670;2024-01-11T18:53:30;19.25;;;11.70;;
